Jepson Prairie Reserve, California Weather observations

Data are for 10 minute period ending at time listed.
 Day   Time   Solar   Ave.   Ave.  Ave.  Vector  Max.   Baro.   Total    
  of    of     Rad.   Air    Rel.  Wind   Wind   Wind  Press.  Precip.   
Year   Day            Temp.  Hum.  Speed  Dir.   Gust                    
2015   (PST)  Kw/m2    F      %     mph   deg.    mph    mb.     in.     
-------------------------------------------------------------------------
  58   21:10   0.00   48.0    84   16.4   204    19.8   1003.1    0.00 
  58   21:20   0.00   47.9    83   17.1   208    20.8   1003.1    0.00 
  58   21:30   0.00   48.1    82   16.4   212    19.2   1003.1    0.00 
  58   21:40   0.00   48.0    83   16.5   215    19.6   1003.1    0.00 
  58   21:50   0.00   47.5    84   14.5   214    18.9   1003.1    0.00 
  58   22:00   0.00   47.1    84   12.6   209    15.9   1003.1    0.00 
  58   22:10   0.00   46.5    86   13.0   202    16.1   1003.1    0.00 
  58   22:20   0.00   46.7    85   13.5   202    16.9   1003.1    0.00 
  58   22:30   0.00   46.7    84   13.7   203    16.8   1003.1    0.00 
  58   22:40   0.00   46.5    84   12.9   204    16.1   1003.1    0.00 
  58   22:50   0.00   46.4    84   13.7   201    15.7   1003.1    0.00 
  58   23:00   0.00   47.2    82   14.4   204    17.8   1003.1    0.00 
  58   23:10   0.00   47.8    82   14.4   209    17.7   1003.1    0.00 
  58   23:20   0.00   48.0    82   14.4   210    17.2   1003.1    0.00 
  58   23:30   0.00   48.3    81   14.2   214    17.5   1003.1    0.00 
  58   23:40   0.00   48.3    81   13.6   212    16.4   1003.1    0.00 
  58   23:50   0.00   48.0    82   12.7   208    17.0   1003.1    0.00 
  59    0:00   0.00   47.8    82   12.2   207    16.2   1003.1    0.00 
  59    0:10   0.00   47.3    83   10.2   203    12.1   1003.1    0.00 
  59    0:20   0.00   46.9    85   11.1   202    13.5   1003.1    0.00 
  59    0:30   0.00   47.1    85   11.2   206    13.9   1003.1    0.00 
  59    0:40   0.00   47.1    84   10.9   205    14.0   1003.1    0.00 
  59    0:50   0.00   47.3    82   12.2   204    14.2   1003.1    0.00 
  59    1:00   0.00   47.6    81   12.5   205    14.8   1003.1    0.00 
  59    1:10   0.00   47.6    81   12.3   204    14.7   1003.1    0.00 
  59    1:20   0.00   47.3    82   12.1   205    14.3   1003.1    0.00 
  59    1:30   0.00   47.4    82   12.4   211    14.8   1003.4    0.00 
  59    1:40   0.00   47.6    81   12.3   210    15.0   1003.4    0.00 
  59    1:50   0.00   47.7    80   13.5   210    16.6   1003.4    0.00 
  59    2:00   0.00   47.7    80   12.5   209    15.6   1003.4    0.00 
  59    2:10   0.00   47.8    80   11.7   211    16.7   1003.4    0.00 
  59    2:20   0.00   47.9    79   11.7   212    15.0   1003.4    0.00 
  59    2:30   0.00   47.7    80    9.9   212    13.1   1003.4    0.00 
  59    2:40   0.00   47.6    80   10.8   214    14.4   1003.4    0.00 
  59    2:50   0.00   47.6    80   10.3   214    13.0   1003.4    0.00 
  59    3:00   0.00   47.6    80   11.0   218    13.7   1003.1    0.00 
  59    3:10   0.00   47.6    80    9.4   218    12.3   1003.1    0.00 
  59    3:20   0.00   47.5    80   10.7   220    13.8   1003.1    0.00 
  59    3:30   0.00   47.3    80    9.1   217    11.7   1003.1    0.00 
  59    3:40   0.00   47.1    82    8.8   205    10.7   1003.1    0.00 
  59    3:50   0.00   47.0    82    9.3   199    11.4   1003.1    0.00 
  59    4:00   0.00   47.1    81    9.4   202    11.6   1003.1    0.00 
  59    4:10   0.00   46.7    84    9.9   198    11.9   1003.1    0.00 
  59    4:20   0.00   46.5    86    9.0   192    10.4   1003.1    0.00 
  59    4:30   0.00   46.1    86    9.1   195    10.5   1003.1    0.00 
  59    4:40   0.00   45.5    87    9.3   196    10.4   1003.4    0.00 
  59    4:50   0.00   45.0    88    9.1   200    10.6   1003.4    0.00 
  59    5:00   0.00   44.6    89    8.5   197     9.9   1003.4    0.00 
  59    5:10   0.00   44.3    90    7.4   200     8.8   1003.7    0.00 
  59    5:20   0.00   44.3    90    8.6   198    10.2   1003.7    0.00 
  59    5:30   0.00   44.4    90    8.6   198    10.0   1003.7    0.00 
  59    5:40   0.00   44.5    90    8.3   197     9.4   1003.7    0.00 
  59    5:50   0.00   44.9    90    7.4   203     8.6   1003.7    0.00 
  59    6:00   0.00   45.3    89    7.4   205    10.2   1003.7    0.00 
  59    6:10   0.00   45.5    88    7.4   204     8.8   1004.1    0.00 
  59    6:20   0.00   45.5    88    7.1   207     8.3   1004.1    0.00 
  59    6:30   0.00   45.6    89    7.3   207     8.6   1004.1    0.00 
  59    6:40   0.00   45.5    90    7.3   206     8.7   1004.1    0.00 
  59    6:50   0.00   45.4    90    7.7   209     9.6   1004.1    0.00 
  59    7:00   0.01   45.4    91    7.5   211     9.1   1004.4    0.00 
  59    7:10   0.02   45.4    90    7.4   208     9.3   1004.4    0.00 
  59    7:20   0.03   45.6    90    8.1   201    10.0   1004.4    0.00 
  59    7:30   0.04   45.8    90    7.4   206     9.3   1004.7    0.00 
  59    7:40   0.05   46.2    90    6.8   211     8.9   1004.7    0.00 
  59    7:50   0.06   46.6    89    5.4   216     7.7   1005.1    0.00 
  59    8:00   0.07   46.9    89    5.5   210     7.8   1005.1    0.00 
  59    8:10   0.07   47.3    88    4.5   235     6.1   1005.4    0.00 
  59    8:20   0.07   47.6    85    3.4   260     4.9   1005.8    0.00 
  59    8:30   0.19   48.2    82    5.2   230     7.4   1005.8    0.00 
  59    8:40   0.16   49.0    80    6.1   228     7.8   1005.8    0.00 
  59    8:50   0.10   48.8    80    4.7   242     6.0   1006.1    0.00 
  59    9:00   0.08   48.6    80    4.4   242     5.9   1006.1    0.00 
  59    9:10   0.10   48.6    80    2.8   250     4.2   1006.1    0.00 
  59    9:20   0.41   49.9    79    1.2   269     2.5   1006.1    0.00 
  59    9:30   0.35   52.1    71    0.8    13     2.1   1006.4    0.00 
  59    9:40   0.58   52.7    72    1.1    27     2.3   1006.4    0.00 
  59    9:50   0.73   54.1    70    1.4     8     3.1   1006.8    0.00 
  59   10:00   0.70   54.5    69    2.4    28     4.8   1007.1    0.00 
  59   10:10   0.56   54.9    66    4.1    43     7.7   1007.1    0.00 
  59   10:20   0.60   54.2    69    4.9    11     7.6   1007.1    0.00 
  59   10:30   0.61   53.9    69    4.2     9     6.9   1007.5    0.00 
  59   10:40   0.66   55.0    66    2.4    12     4.7   1007.5    0.00 
  59   10:50   0.73   56.4    63    1.2   297     3.7   1007.5    0.00 
  59   11:00   0.78   56.7    63    2.2    11     5.0   1007.8    0.00 
  59   11:10   0.76   57.1    61    1.2   336     3.7   1007.8    0.00 
  59   11:20   0.64   56.9    59    2.5   328     5.0   1007.8    0.00 
  59   11:30   0.63   56.9    58    2.4    10     6.7   1007.8    0.00 
  59   11:40   0.78   56.7    59    4.8   332     8.6   1007.8    0.00 
  59   11:50   0.75   57.4    59    3.3   331     6.0   1007.8    0.00 
  59   12:00   0.32   57.5    58    3.2   354     8.3   1007.8    0.00 
  59   12:10   0.53   57.1    59    4.1     6     8.6   1007.8    0.00 
  59   12:20   0.85   56.9    60    7.8   328    12.1   1007.8    0.00 
  59   12:30   0.77   57.0    60    5.2   320     8.6   1007.8    0.00 
  59   12:40   0.75   57.4    57    5.3   339     8.4   1007.8    0.00 
  59   12:50   0.72   57.3    57    7.9   358    12.4   1007.8    0.00 
  59   13:00   0.72   57.4    56    6.6   352    11.9   1007.5    0.00 
  59   13:10   0.71   57.8    57    5.8     3    10.3   1007.5    0.00 
  59   13:20   0.50   58.6    58    7.2   358    11.5   1007.5    0.00 
  59   13:30   0.63   57.6    59    6.3   354     9.1   1007.5    0.00 
  59   13:40   0.80   58.5    57    6.5   335    10.8   1007.1    0.00 
  59   13:50   0.76   58.9    58    5.1     9     8.5   1007.1    0.00 
  59   14:00   0.56   59.3    58    5.6    15    10.4   1007.1    0.00 
  59   14:10   0.28   58.4    59    7.4    10    13.8   1007.1    0.00 
  59   14:20   0.19   57.7    62    6.9    20     9.0   1007.1    0.00 
  59   14:30   0.52   58.1    62    6.5    16     9.3   1007.1    0.00 
  59   14:40   0.57   59.3    57    4.5    24     8.3   1007.1    0.00 
  59   14:50   0.51   58.9    58    6.8     8    10.7   1007.1    0.00 
  59   15:00   0.21   58.4    57    4.9     0    10.7   1007.1    0.00 
  59   15:10   0.25   58.5    58    7.8    46    11.4   1007.1    0.00 
  59   15:20   0.14   58.1    60    5.9    37     9.7   1007.1    0.00 
  59   15:30   0.19   58.3    57    4.2    16     7.2   1007.1    0.00 
  59   15:40   0.16   58.4    58    4.8     4     6.7   1007.1    0.00 
  59   15:50   0.18   58.4    61   10.4   344    15.2   1007.1    0.00 
  59   16:00   0.28   58.4    65   13.6    23    18.7   1007.1    0.00 
  59   16:10   0.08   57.5    69   11.4    16    13.8   1007.5    0.00 
  59   16:20   0.07   57.2    69    9.9    17    12.7   1007.5    0.00 
  59   16:30   0.07   57.1    69   10.6    10    13.7   1007.5    0.00 
  59   16:40   0.07   56.6    72    7.7     3     9.9   1007.5    0.00 
  59   16:50   0.09   56.5    71    8.6   358    11.8   1007.5    0.00 
  59   17:00   0.10   57.2    68   10.0   359    12.7   1007.8    0.00 
  59   17:10   0.14   56.9    69    8.9     0    11.3   1007.8    0.00 
  59   17:20   0.10   56.9    68    9.6   358    11.8   1007.8    0.00 
  59   17:30   0.08   56.9    65    8.9   351    11.3   1008.1    0.00 
  59   17:40   0.05   56.6    66    7.9   346     9.9   1008.1    0.00 
  59   17:50   0.02   56.4    65    8.8   345    11.8   1008.1    0.00 
  59   18:00   0.01   56.1    67    8.4   339    11.0   1008.1    0.00 
  59   18:10   0.00   55.5    68    8.5   336    10.9   1008.1    0.00 
  59   18:20   0.00   55.0    69    8.8   336    10.9   1008.5    0.00 
  59   18:30   0.00   54.3    72    7.9   330     9.6   1008.5    0.00 
  59   18:40   0.00   53.1    74    8.0   324     9.1   1008.5    0.00 
  59   18:50   0.00   52.3    74    7.4   323     9.1   1008.5    0.00 
  59   19:00   0.00   51.1    78    6.5   317     7.2   1008.5    0.00 
  59   19:10   0.00   50.5    79    7.7   315     8.9   1008.5    0.00 
  59   19:20   0.00   49.5    82    8.0   318     8.6   1008.8    0.00 
  59   19:30   0.00   48.8    84    8.2   320     9.6   1008.8    0.00 
  59   19:40   0.00   49.9    81    8.6   323     9.9   1008.8    0.00 
  59   19:50   0.00   50.1    82    6.7   324     9.2   1008.8    0.00 
  59   20:00   0.00   49.4    83    6.7   326     7.5   1009.1    0.00 
  59   20:10   0.00   49.2    84    5.4   334     7.0   1009.1    0.00 
  59   20:20   0.00   49.6    83    4.6   331     5.3   1009.1    0.00 
  59   20:30   0.00   49.6    82    4.8   336     5.6   1009.1    0.00 
  59   20:40   0.00   49.5    83    5.0   335     6.1   1009.5    0.00 
  59   20:50   0.00   48.9    84    6.4   323     7.1   1009.5    0.00 
  59   21:00   0.00   48.6    85    6.8   323     7.1   1009.5    0.00 

Return to Jepson Prairie Reserve graphs page.


Western Regional Climate Center,wrcc@dri.edu